createdAt,value
2023-01-19T00:00:31.533Z,99645.16
2023-01-19T00:02:58.229Z,99649.81
2023-01-19T00:05:24.767Z,99644.94
2023-01-19T00:07:51.215Z,99651.00
2023-01-19T00:10:17.941Z,99656.06
2023-01-19T00:12:44.359Z,99659.00
2023-01-19T00:15:11.822Z,99663.06
2023-01-19T00:17:40.974Z,99664.91
2023-01-19T00:20:09.392Z,99673.28
2023-01-19T00:22:35.921Z,99677.41
2023-01-19T00:25:02.825Z,99672.69
2023-01-19T00:27:30.446Z,99681.97
2023-01-19T00:29:57.184Z,99685.44
2023-01-19T00:32:23.716Z,99684.75
2023-01-19T00:34:52.292Z,99687.53
2023-01-19T00:37:18.767Z,99694.25
2023-01-19T00:39:45.265Z,99683.38
2023-01-19T00:42:31.653Z,99693.75
2023-01-19T00:44:58.321Z,99697.13
2023-01-19T00:47:25.087Z,99696.88
2023-01-19T00:49:51.653Z,99690.75
2023-01-19T00:52:18.199Z,99689.38
2023-01-19T00:54:44.614Z,99696.66
2023-01-19T00:57:11.207Z,99693.09
2023-01-19T00:59:37.697Z,99698.81
2023-01-19T01:02:04.346Z,99711.03
2023-01-19T01:04:31.095Z,99702.50
2023-01-19T01:06:57.540Z,99698.81
2023-01-19T01:09:24.245Z,99706.69
2023-01-19T01:11:50.707Z,99703.50
2023-01-19T01:14:18.192Z,99699.03
2023-01-19T01:16:44.915Z,99702.66
2023-01-19T01:19:11.509Z,99704.41
2023-01-19T01:21:38.016Z,99700.94
2023-01-19T01:24:05.051Z,99702.31
2023-01-19T01:26:31.868Z,99707.22
2023-01-19T01:28:58.337Z,99707.84
2023-01-19T01:31:25.177Z,99718.66
2023-01-19T01:33:51.733Z,99714.44
2023-01-19T01:36:19.069Z,99724.63
2023-01-19T01:38:45.549Z,99719.91
2023-01-19T01:41:12.014Z,99721.84
2023-01-19T01:43:58.593Z,99720.06
2023-01-19T01:46:26.683Z,99718.41
2023-01-19T01:49:13.825Z,99719.41
2023-01-19T01:51:52.309Z,99721.94
2023-01-19T01:54:32.277Z,99722.94
2023-01-19T01:57:04.148Z,99729.38
2023-01-19T01:59:39.166Z,99721.25
2023-01-19T02:02:30.070Z,99717.03
2023-01-19T02:09:14.295Z,99718.00
2023-01-19T02:12:00.490Z,99713.78
2023-01-19T02:14:27.111Z,99714.84
2023-01-19T02:16:53.793Z,99713.34
2023-01-19T02:19:27.093Z,99713.88
2023-01-19T02:22:03.572Z,99710.16
2023-01-19T02:24:30.550Z,99714.56
2023-01-19T02:26:57.888Z,99719.97
2023-01-19T02:29:26.538Z,99718.31
2023-01-19T02:31:54.078Z,99725.44
2023-01-19T02:34:22.742Z,99720.91
2023-01-19T02:36:54.370Z,99720.22
2023-01-19T02:39:28.923Z,99712.94
2023-01-19T02:42:02.708Z,99708.72
2023-01-19T02:44:30.471Z,99710.19
2023-01-19T02:46:57.256Z,99704.72
2023-01-19T02:49:27.847Z,99709.50
2023-01-19T02:51:54.469Z,99702.28
2023-01-19T02:54:48.378Z,99708.41
2023-01-19T02:57:20.544Z,99707.25
2023-01-19T03:00:05.194Z,99710.63
2023-01-19T03:02:47.039Z,99699.75
2023-01-19T03:05:20.071Z,99703.19
2023-01-19T03:08:08.190Z,99708.47
2023-01-19T03:11:03.819Z,99718.91
2023-01-19T03:13:42.377Z,99715.25
2023-01-19T03:16:32.331Z,99710.94
2023-01-19T03:19:06.487Z,99707.25
2023-01-19T03:21:36.792Z,99710.19
2023-01-19T03:24:06.397Z,99703.91
2023-01-19T03:26:38.980Z,99710.94
2023-01-19T03:29:08.459Z,99717.09
2023-01-19T03:31:36.896Z,99723.25
2023-01-19T03:34:08.093Z,99718.91
2023-01-19T03:36:42.755Z,99715.03
2023-01-19T03:39:12.345Z,99714.38
2023-01-19T03:41:41.141Z,99711.56
2023-01-19T03:44:08.705Z,99712.47
2023-01-19T03:46:35.302Z,99721.22
2023-01-19T03:49:01.897Z,99727.06
2023-01-19T03:51:28.351Z,99727.41
2023-01-19T03:53:54.792Z,99726.28
2023-01-19T03:56:25.419Z,99726.13
2023-01-19T03:58:52.490Z,99728.56
2023-01-19T04:01:23.040Z,99733.84
2023-01-19T04:03:50.548Z,99732.91
2023-01-19T04:06:17.530Z,99729.69
2023-01-19T04:08:44.058Z,99723.38
2023-01-19T04:11:10.568Z,99728.06
2023-01-19T04:13:38.433Z,99729.59
2023-01-19T04:16:05.561Z,99719.38
2023-01-19T04:18:34.706Z,99735.28
2023-01-19T04:21:04.067Z,99728.53
2023-01-19T04:23:31.333Z,99725.84
2023-01-19T04:26:04.225Z,99730.66
2023-01-19T04:28:31.672Z,99730.19
2023-01-19T04:30:58.256Z,99732.16
2023-01-19T04:33:25.441Z,99734.78
2023-01-19T04:35:54.429Z,99744.22
2023-01-19T04:38:21.197Z,99733.78
2023-01-19T04:40:49.181Z,99735.75
2023-01-19T04:43:16.260Z,99732.25
2023-01-19T04:45:44.780Z,99736.75
2023-01-19T04:48:11.869Z,99735.25
2023-01-19T04:50:38.779Z,99741.66
2023-01-19T04:53:05.293Z,99737.16
2023-01-19T04:55:31.741Z,99737.88
2023-01-19T04:57:58.160Z,99730.19
2023-01-19T05:00:24.714Z,99739.31
2023-01-19T05:02:51.295Z,99737.50
2023-01-19T05:05:18.377Z,99735.19
2023-01-19T05:07:45.292Z,99737.84
2023-01-19T05:10:12.043Z,99737.16
2023-01-19T05:12:39.001Z,99739.19
2023-01-19T05:15:07.799Z,99735.25
2023-01-19T05:17:34.477Z,99739.41
2023-01-19T05:20:00.987Z,99744.47
2023-01-19T05:22:27.472Z,99746.16
2023-01-19T05:24:54.292Z,99736.03
2023-01-19T05:27:21.032Z,99731.59
2023-01-19T05:29:47.495Z,99735.38
2023-01-19T05:32:15.845Z,99739.84
2023-01-19T05:34:42.290Z,99747.00
2023-01-19T05:37:08.745Z,99746.94
2023-01-19T05:39:35.159Z,99747.78
2023-01-19T05:42:01.608Z,99748.06
2023-01-19T05:44:28.094Z,99757.16
2023-01-19T05:46:54.575Z,99753.75
2023-01-19T05:49:21.021Z,99759.34
2023-01-19T05:51:47.551Z,99770.25
2023-01-19T05:54:17.599Z,99772.38
2023-01-19T05:56:44.410Z,99773.56
2023-01-19T05:59:11.641Z,99778.56
2023-01-19T06:01:39.923Z,99778.00
2023-01-19T06:04:06.805Z,99784.97
2023-01-19T06:06:33.321Z,99784.13
2023-01-19T06:08:59.935Z,99791.47
2023-01-19T06:11:26.538Z,99791.38
2023-01-19T06:13:53.016Z,99797.84
2023-01-19T06:16:19.583Z,99797.28
2023-01-19T06:18:46.159Z,99789.66
2023-01-19T06:21:14.346Z,99797.69
2023-01-19T06:23:41.135Z,99790.44
2023-01-19T06:26:08.136Z,99788.94
2023-01-19T06:28:34.699Z,99778.66
2023-01-19T06:31:01.613Z,99789.22
2023-01-19T06:33:28.744Z,99796.13
2023-01-19T06:35:56.187Z,99786.41
2023-01-19T06:38:23.086Z,99795.66
2023-01-19T06:41:02.534Z,99794.00
2023-01-19T06:43:29.696Z,99799.94
2023-01-19T06:45:56.347Z,99788.69
2023-01-19T06:48:23.818Z,99788.53
2023-01-19T06:50:50.451Z,99788.75
2023-01-19T06:53:17.584Z,99793.19
2023-01-19T06:55:44.208Z,99790.75
2023-01-19T06:58:11.458Z,99793.22
2023-01-19T07:00:38.147Z,99800.88
2023-01-19T07:03:08.190Z,99794.78
2023-01-19T07:05:36.124Z,99806.78
2023-01-19T07:08:03.270Z,99802.78
2023-01-19T07:11:25.160Z,99804.41
2023-01-19T07:13:16.215Z,99803.63
2023-01-19T07:15:43.573Z,99805.47
2023-01-19T07:18:10.216Z,99803.91
2023-01-19T07:20:37.912Z,99811.38
2023-01-19T07:23:04.462Z,99808.91
2023-01-19T07:25:30.953Z,99808.56
2023-01-19T07:28:00.636Z,99814.59
2023-01-19T07:30:27.692Z,99813.19
2023-01-19T07:32:58.939Z,99819.41
2023-01-19T07:35:25.714Z,99821.34
2023-01-19T07:37:52.457Z,99828.94
2023-01-19T07:40:19.031Z,99828.06
2023-01-19T07:42:50.259Z,99831.13
2023-01-19T07:45:18.095Z,99828.44
2023-01-19T07:47:45.197Z,99831.13
2023-01-19T07:50:13.723Z,99828.44
2023-01-19T07:52:40.367Z,99835.00
2023-01-19T07:55:07.565Z,99827.59
2023-01-19T07:57:34.848Z,99836.16
2023-01-19T08:00:01.977Z,99837.59
2023-01-19T08:02:28.500Z,99840.91
2023-01-19T08:04:55.140Z,99841.81
2023-01-19T08:07:21.800Z,99845.22
2023-01-19T08:09:48.290Z,99849.94
2023-01-19T08:12:14.908Z,99837.75
2023-01-19T08:14:41.733Z,99844.22
2023-01-19T08:17:12.913Z,99843.63
2023-01-19T08:19:41.528Z,99844.72
2023-01-19T08:22:18.065Z,99843.88
2023-01-19T08:24:44.620Z,99849.84
2023-01-19T08:27:13.400Z,99853.69
2023-01-19T08:29:39.945Z,99869.09
2023-01-19T08:32:06.778Z,99860.59
2023-01-19T08:34:33.509Z,99872.69
2023-01-19T08:36:59.989Z,99878.56
2023-01-19T08:39:27.377Z,99871.66
2023-01-19T08:41:54.221Z,99868.13
2023-01-19T08:44:20.758Z,99863.41
2023-01-19T08:46:47.757Z,99872.75
2023-01-19T08:49:14.672Z,99875.38
2023-01-19T08:51:41.298Z,99875.09
2023-01-19T08:54:07.794Z,99880.16
2023-01-19T08:56:34.438Z,99879.94
2023-01-19T08:59:09.164Z,99887.78
2023-01-19T09:01:37.215Z,99878.47
2023-01-19T09:04:04.242Z,99878.84
2023-01-19T09:06:30.838Z,99875.81
2023-01-19T09:08:57.695Z,99873.19
2023-01-19T09:11:24.211Z,99871.06
2023-01-19T09:13:50.922Z,99880.13
2023-01-19T09:16:17.640Z,99883.22
2023-01-19T09:18:45.777Z,99883.72
2023-01-19T09:21:12.344Z,99887.84
2023-01-19T09:23:38.968Z,99890.31
2023-01-19T09:26:06.231Z,99880.19
2023-01-19T09:28:33.083Z,99892.31
2023-01-19T09:30:59.729Z,99896.56
2023-01-19T09:33:26.324Z,99891.56
2023-01-19T09:35:52.897Z,99892.47
2023-01-19T09:38:20.323Z,99890.66
2023-01-19T09:40:55.364Z,99892.72
2023-01-19T09:43:33.996Z,99882.56
2023-01-19T09:46:02.615Z,99886.34
2023-01-19T09:48:32.428Z,99885.28
2023-01-19T09:51:02.756Z,99878.22
2023-01-19T09:53:29.135Z,99873.56
2023-01-19T09:55:55.658Z,99875.63
2023-01-19T09:58:22.678Z,99862.34
2023-01-19T10:01:02.689Z,99867.19
2023-01-19T10:03:29.661Z,99868.38
2023-01-19T10:06:03.499Z,99866.53
2023-01-19T10:08:44.164Z,99862.97
2023-01-19T10:11:51.308Z,99867.09
2023-01-19T10:14:34.184Z,99868.72
2023-01-19T10:17:14.699Z,99865.28
2023-01-19T10:19:47.362Z,99863.63
2023-01-19T10:22:21.641Z,99854.34
2023-01-19T10:24:53.674Z,99861.53
2023-01-19T10:27:26.736Z,99863.78
2023-01-19T10:29:53.662Z,99860.66
2023-01-19T10:32:23.654Z,99856.47
2023-01-19T10:34:51.011Z,99851.31
2023-01-19T10:37:33.403Z,99849.06
2023-01-19T10:40:09.125Z,99850.41
2023-01-19T10:42:36.914Z,99848.19
2023-01-19T10:45:04.835Z,99847.25
2023-01-19T10:47:35.195Z,99846.63
2023-01-19T10:50:34.421Z,99854.00
2023-01-19T10:53:06.277Z,99851.41
2023-01-19T10:55:38.251Z,99850.31
2023-01-19T10:58:06.933Z,99852.94
2023-01-19T11:00:43.409Z,99844.94
2023-01-19T11:03:30.658Z,99842.44
2023-01-19T11:06:15.613Z,99847.53
2023-01-19T11:08:44.343Z,99832.91
2023-01-19T11:11:12.618Z,99823.69
2023-01-19T11:13:40.619Z,99829.25
2023-01-19T11:16:23.485Z,99833.44
2023-01-19T11:18:53.515Z,99829.31
2023-01-19T11:21:25.978Z,99830.81
2023-01-19T11:23:59.005Z,99829.56
2023-01-19T11:26:44.865Z,99829.31
2023-01-19T11:29:18.223Z,99825.47
2023-01-19T11:31:44.884Z,99823.91
2023-01-19T11:34:37.415Z,99822.50
2023-01-19T11:37:06.859Z,99819.06
2023-01-19T11:39:47.591Z,99817.84
2023-01-19T11:42:15.988Z,99807.97
2023-01-19T11:44:57.682Z,99807.88
2023-01-19T11:47:27.196Z,99808.38
2023-01-19T11:49:53.692Z,99805.13
2023-01-19T11:52:55.663Z,99815.22
2023-01-19T11:55:21.980Z,99810.34
2023-01-19T11:57:53.444Z,99808.75
2023-01-19T12:00:29.095Z,99801.47
2023-01-19T12:03:03.072Z,99808.34
2023-01-19T12:05:33.487Z,99812.03
2023-01-19T12:08:07.016Z,99810.47
2023-01-19T12:10:39.004Z,99809.28
2023-01-19T12:13:05.445Z,99811.22
2023-01-19T12:15:37.474Z,99815.56
2023-01-19T12:18:06.390Z,99809.75
2023-01-19T12:20:40.488Z,99812.09
2023-01-19T12:23:45.777Z,99818.41
2023-01-19T12:26:24.082Z,99818.19
2023-01-19T12:28:52.570Z,99820.69
2023-01-19T12:31:23.558Z,99825.53
2023-01-19T12:33:51.282Z,99822.66
2023-01-19T12:36:27.078Z,99824.50
2023-01-19T12:38:56.272Z,99819.69
2023-01-19T12:41:30.481Z,99824.03
2023-01-19T12:44:12.404Z,99831.09
2023-01-19T12:46:42.236Z,99827.63
2023-01-19T12:49:33.578Z,99825.34
2023-01-19T12:52:34.440Z,99827.50
2023-01-19T12:55:02.667Z,99819.19
2023-01-19T12:57:37.925Z,99827.66
2023-01-19T13:00:24.355Z,99835.72
2023-01-19T13:02:52.790Z,99831.59
2023-01-19T13:05:45.936Z,99835.13
2023-01-19T13:08:14.927Z,99837.97
2023-01-19T13:10:59.354Z,99841.16
2023-01-19T13:13:27.787Z,99833.13
2023-01-19T13:15:56.033Z,99844.63
2023-01-19T13:18:31.816Z,99840.28
2023-01-19T13:21:01.487Z,99843.44
2023-01-19T13:23:51.896Z,99843.88
2023-01-19T13:26:30.968Z,99849.94
2023-01-19T13:29:25.139Z,99852.88
2023-01-19T13:31:54.769Z,99853.69
2023-01-19T13:34:24.635Z,99853.69
2023-01-19T13:36:54.411Z,99857.13
2023-01-19T13:39:28.538Z,99855.88
2023-01-19T13:41:59.175Z,99857.00
2023-01-19T13:44:29.498Z,99855.78
2023-01-19T13:46:57.545Z,99860.06
2023-01-19T13:49:37.050Z,99866.78
2023-01-19T13:52:27.757Z,99874.47
2023-01-19T13:55:03.818Z,99876.53
2023-01-19T13:57:32.124Z,99880.38
2023-01-19T14:00:04.047Z,99882.06
2023-01-19T14:02:30.783Z,99894.44
2023-01-19T14:04:57.560Z,99876.47
2023-01-19T14:07:26.602Z,99877.38
2023-01-19T14:10:06.715Z,99873.91
2023-01-19T14:12:33.547Z,99881.59
2023-01-19T14:15:00.804Z,99885.53
2023-01-19T14:17:30.344Z,99877.66
2023-01-19T14:19:58.568Z,99882.16
2023-01-19T14:22:42.990Z,99885.81
2023-01-19T14:25:34.077Z,99889.13
2023-01-19T14:28:25.500Z,99893.72
2023-01-19T14:31:01.592Z,99891.75
2023-01-19T14:33:43.616Z,99906.16
2023-01-19T14:36:39.289Z,99900.53
2023-01-19T14:39:14.137Z,99903.44
2023-01-19T14:41:47.920Z,99907.19
2023-01-19T14:44:21.382Z,99908.75
2023-01-19T14:46:49.099Z,99914.44
2023-01-19T14:49:34.167Z,99916.56
2023-01-19T14:52:08.467Z,99912.44
2023-01-19T14:54:40.027Z,99918.09
2023-01-19T14:57:12.494Z,99922.19
2023-01-19T14:59:39.169Z,99914.53
2023-01-19T15:02:06.373Z,99918.34
2023-01-19T15:04:33.198Z,99915.75
2023-01-19T15:06:59.768Z,99914.97
2023-01-19T15:09:26.828Z,99917.59
2023-01-19T15:11:53.625Z,99908.63
2023-01-19T15:14:21.467Z,99915.38
2023-01-19T15:16:48.475Z,99925.88
2023-01-19T15:19:16.948Z,99923.06
2023-01-19T15:21:46.841Z,99923.16
2023-01-19T15:24:15.838Z,99915.03
2023-01-19T15:26:43.599Z,99929.28
2023-01-19T15:29:18.101Z,99922.63
2023-01-19T15:31:44.841Z,99927.03
2023-01-19T15:34:13.405Z,99921.13
2023-01-19T15:36:40.452Z,99933.09
2023-01-19T15:39:06.932Z,99925.25
2023-01-19T15:41:33.640Z,99929.53
2023-01-19T15:44:00.150Z,99925.63
2023-01-19T15:46:27.328Z,99931.53
2023-01-19T15:48:54.283Z,99936.56
2023-01-19T15:51:22.842Z,99937.34
2023-01-19T15:53:50.579Z,99929.44
2023-01-19T15:56:31.185Z,99928.50
2023-01-19T15:58:58.773Z,99935.34
2023-01-19T16:01:32.016Z,99932.06
2023-01-19T16:04:01.213Z,99936.72
2023-01-19T16:06:28.666Z,99942.56
2023-01-19T16:08:59.747Z,99938.56
2023-01-19T16:11:33.517Z,99937.91
2023-01-19T16:14:00.745Z,99933.16
2023-01-19T16:16:28.226Z,99941.28
2023-01-19T16:18:55.996Z,99933.72
2023-01-19T16:21:23.825Z,99938.94
2023-01-19T16:23:50.439Z,99942.91
2023-01-19T16:26:34.840Z,99934.44
2023-01-19T16:29:07.784Z,99938.09
2023-01-19T16:31:34.627Z,99937.50
2023-01-19T16:34:01.110Z,99938.78
2023-01-19T16:36:29.856Z,99941.16
2023-01-19T16:39:01.405Z,99945.56
2023-01-19T16:41:28.224Z,99945.22
2023-01-19T16:43:56.888Z,99948.44
2023-01-19T16:46:26.484Z,99948.19
2023-01-19T16:48:53.474Z,99951.81
2023-01-19T16:51:20.366Z,99953.47
2023-01-19T16:53:49.518Z,99960.25
2023-01-19T16:56:16.156Z,99956.00
2023-01-19T16:58:43.063Z,99958.03
2023-01-19T17:01:17.240Z,99955.25
2023-01-19T17:03:45.516Z,99960.47
2023-01-19T17:06:14.760Z,99959.53
2023-01-19T17:08:41.599Z,99958.97
2023-01-19T17:11:10.845Z,99960.84
2023-01-19T17:13:38.180Z,99966.16
2023-01-19T17:16:06.364Z,99957.34
2023-01-19T17:18:34.660Z,99953.94
2023-01-19T17:21:07.395Z,99952.84
2023-01-19T17:23:36.309Z,99963.44
2023-01-19T17:26:04.318Z,99966.16
2023-01-19T17:28:31.013Z,99958.19
2023-01-19T17:31:05.003Z,99964.25
2023-01-19T17:33:31.492Z,99961.09
2023-01-19T17:36:06.912Z,99965.09
2023-01-19T17:38:33.545Z,99968.84
2023-01-19T17:41:00.026Z,99967.84
2023-01-19T17:43:26.882Z,99967.66
2023-01-19T17:45:53.426Z,99965.66
2023-01-19T17:48:19.943Z,99980.53
2023-01-19T17:50:46.603Z,99976.22
2023-01-19T17:53:13.033Z,99980.44
2023-01-19T17:55:39.476Z,99980.72
2023-01-19T17:58:06.050Z,99983.91
2023-01-19T18:00:32.539Z,99990.84
2023-01-19T18:02:59.015Z,99992.28
2023-01-19T18:05:25.509Z,99991.31
2023-01-19T18:07:51.936Z,99997.41
2023-01-19T18:10:18.385Z,99991.81
2023-01-19T18:12:45.221Z,99995.38
2023-01-19T18:15:12.355Z,100001.28
2023-01-19T18:17:39.546Z,100010.19
2023-01-19T18:20:06.334Z,100000.97
2023-01-19T18:22:33.426Z,100010.19
2023-01-19T18:25:01.536Z,100009.63
2023-01-19T18:27:29.167Z,100012.63
2023-01-19T18:29:55.985Z,100009.00
2023-01-19T18:32:22.419Z,100011.44
2023-01-19T18:34:51.020Z,100018.25
2023-01-19T18:37:17.516Z,100012.63
2023-01-19T18:39:44.163Z,100027.00
2023-01-19T18:42:10.605Z,100024.44
2023-01-19T18:44:37.166Z,100028.59
2023-01-19T18:47:03.629Z,100022.59
2023-01-19T18:49:30.039Z,100020.03
2023-01-19T18:51:56.482Z,100019.38
2023-01-19T18:54:23.132Z,100024.44
2023-01-19T18:56:50.659Z,100029.88
2023-01-19T18:59:17.171Z,100041.66
2023-01-19T19:01:43.775Z,100042.16
2023-01-19T19:04:10.356Z,100034.28
2023-01-19T19:06:36.971Z,100036.91
2023-01-19T19:09:03.566Z,100041.19
2023-01-19T19:11:30.174Z,100038.69
2023-01-19T19:13:59.802Z,100039.44
2023-01-19T19:16:26.451Z,100047.03
2023-01-19T19:18:53.088Z,100047.31
2023-01-19T19:21:20.879Z,100050.63
2023-01-19T19:23:55.473Z,100054.16
2023-01-19T19:26:23.115Z,100061.00
2023-01-19T19:28:49.930Z,100052.38
2023-01-19T19:31:20.503Z,100069.63
2023-01-19T19:33:48.860Z,100063.63
2023-01-19T19:36:15.602Z,100070.31
2023-01-19T19:38:43.027Z,100068.97
2023-01-19T19:41:12.370Z,100071.50
2023-01-19T19:43:39.270Z,100082.00
2023-01-19T19:46:08.292Z,100080.97
2023-01-19T19:48:38.860Z,100087.34
2023-01-19T19:51:19.033Z,100088.19
2023-01-19T19:53:46.520Z,100089.84
2023-01-19T19:56:13.486Z,100091.97
2023-01-19T19:58:41.979Z,100099.72
2023-01-19T20:01:24.680Z,100093.41
2023-01-19T20:03:53.383Z,100105.31
2023-01-19T20:06:22.600Z,100103.81
2023-01-19T20:08:50.622Z,100106.19
2023-01-19T20:11:21.075Z,100108.22
2023-01-19T20:13:47.792Z,100108.81
2023-01-19T20:16:16.437Z,100108.44
2023-01-19T20:18:45.159Z,100118.59
2023-01-19T20:21:20.498Z,100113.28
2023-01-19T20:23:48.052Z,100113.78
2023-01-19T20:26:17.647Z,100110.34
2023-01-19T20:28:44.252Z,100112.19
2023-01-19T20:31:13.710Z,100119.50
2023-01-19T20:33:40.537Z,100126.00
2023-01-19T20:36:08.013Z,100129.72
2023-01-19T20:38:34.686Z,100134.28
2023-01-19T20:41:01.177Z,100139.53
2023-01-19T20:43:28.763Z,100138.69
2023-01-19T20:45:55.227Z,100135.31
2023-01-19T20:48:21.907Z,100140.97
2023-01-19T20:50:48.371Z,100141.31
2023-01-19T20:53:14.961Z,100149.19
2023-01-19T20:55:41.398Z,100148.59
2023-01-19T20:58:07.859Z,100154.25
2023-01-19T21:00:34.688Z,100152.91
2023-01-19T21:03:01.247Z,100155.72
2023-01-19T21:05:28.144Z,100159.16
2023-01-19T21:07:54.598Z,100160.28
2023-01-19T21:10:22.126Z,100174.56
2023-01-19T21:12:48.625Z,100169.31
2023-01-19T21:15:15.310Z,100178.63
2023-01-19T21:17:43.710Z,100177.44
2023-01-19T21:20:11.792Z,100178.88
2023-01-19T21:22:38.269Z,100188.38
2023-01-19T21:25:05.137Z,100182.34
2023-01-19T21:27:31.595Z,100185.81
2023-01-19T21:29:58.678Z,100185.88
2023-01-19T21:32:25.214Z,100178.38
2023-01-19T21:34:51.658Z,100186.91
2023-01-19T21:37:18.263Z,100190.44
2023-01-19T21:39:44.896Z,100195.88
2023-01-19T21:42:11.400Z,100205.78
2023-01-19T21:44:37.961Z,100199.28
2023-01-19T21:47:09.773Z,100210.59
2023-01-19T21:49:36.248Z,100213.63
2023-01-19T21:52:02.746Z,100218.22
2023-01-19T21:54:29.166Z,100218.47
2023-01-19T21:56:55.610Z,100225.69
2023-01-19T21:59:22.278Z,100233.44
2023-01-19T22:01:48.962Z,100228.88
2023-01-19T22:04:15.475Z,100227.78
2023-01-19T22:06:41.924Z,100240.06
2023-01-19T22:09:08.618Z,100233.44
2023-01-19T22:11:35.234Z,100240.06
2023-01-19T22:14:01.966Z,100241.16
2023-01-19T22:16:29.438Z,100246.31
2023-01-19T22:18:59.543Z,100249.16
2023-01-19T22:21:31.913Z,100245.97
2023-01-19T22:24:00.061Z,100255.19
2023-01-19T22:26:28.235Z,100265.19
2023-01-19T22:28:59.877Z,100267.31
2023-01-19T22:31:28.462Z,100268.88
2023-01-19T22:33:55.665Z,100273.31
2023-01-19T22:36:27.703Z,100267.09
2023-01-19T22:38:58.255Z,100275.19
2023-01-19T22:41:40.651Z,100280.00
2023-01-19T22:44:10.532Z,100277.81
2023-01-19T22:46:37.642Z,100278.38
2023-01-19T22:49:05.563Z,100282.63
2023-01-19T22:51:32.753Z,100282.28
2023-01-19T22:53:59.569Z,100280.44
2023-01-19T22:56:28.727Z,100280.25
2023-01-19T22:58:55.265Z,100284.03
2023-01-19T23:01:25.588Z,100288.88
2023-01-19T23:03:53.236Z,100289.22
2023-01-19T23:06:24.950Z,100295.41
2023-01-19T23:08:52.191Z,100297.28
2023-01-19T23:11:22.485Z,100297.53
2023-01-19T23:13:49.534Z,100282.88
2023-01-19T23:16:16.518Z,100289.16
2023-01-19T23:18:43.746Z,100291.69
2023-01-19T23:21:15.784Z,100301.00
2023-01-19T23:23:43.191Z,100303.53
2023-01-19T23:26:12.659Z,100306.16
2023-01-19T23:28:40.110Z,100313.38
2023-01-19T23:31:13.059Z,100313.88
2023-01-19T23:33:41.460Z,100317.44
2023-01-19T23:36:08.482Z,100312.09
2023-01-19T23:38:34.942Z,100309.22
2023-01-19T23:41:01.550Z,100309.97
2023-01-19T23:43:28.027Z,100305.72
2023-01-19T23:45:54.506Z,100315.22
2023-01-19T23:48:21.040Z,100315.38
2023-01-19T23:50:47.540Z,100311.22
2023-01-19T23:53:14.070Z,100318.34
2023-01-19T23:55:40.520Z,100315.53
2023-01-19T23:58:06.966Z,100319.00
